createdAt,value
2022-08-23T00:03:25.640Z,100250.34
2022-08-23T00:10:14.624Z,100249.94
2022-08-23T00:17:01.675Z,100242.78
2022-08-23T00:23:49.841Z,100216.47
2022-08-23T00:30:35.513Z,100180.25
2022-08-23T00:37:22.124Z,100239.94
2022-08-23T00:44:31.557Z,100230.88
2022-08-23T00:51:23.828Z,100168.22
2022-08-23T00:58:09.361Z,100237.53
2022-08-23T01:05:03.153Z,100237.63
2022-08-23T01:12:02.068Z,100234.91
2022-08-23T01:18:47.995Z,100236.47
2022-08-23T01:25:38.215Z,100248.63
2022-08-23T01:32:25.703Z,100213.53
2022-08-23T01:39:11.464Z,100265.72
2022-08-23T01:46:00.270Z,100258.22
2022-08-23T01:52:47.573Z,100252.25
2022-08-23T01:59:35.662Z,100259.50
2022-08-23T02:06:23.875Z,100255.97
2022-08-23T02:13:09.420Z,100272.94
2022-08-23T02:19:55.306Z,100275.66
2022-08-23T02:26:49.712Z,100275.78
2022-08-23T02:33:42.449Z,100290.03
2022-08-23T02:40:28.428Z,100287.72
2022-08-23T03:01:19.825Z,100297.00
2022-08-23T03:08:08.242Z,100298.63
2022-08-23T03:15:02.231Z,100294.59
2022-08-23T03:21:51.083Z,100292.59
2022-08-23T03:28:42.067Z,100292.19
2022-08-23T03:35:28.944Z,100310.66
2022-08-23T03:42:17.532Z,100299.03
2022-08-23T03:49:07.130Z,100305.84
2022-08-23T03:56:13.043Z,100317.50
2022-08-23T04:03:01.052Z,100315.88
2022-08-23T04:09:48.551Z,100318.66
2022-08-23T04:16:37.747Z,100328.69
2022-08-23T04:23:28.011Z,100331.88
2022-08-23T04:30:16.705Z,100341.50
2022-08-23T04:37:09.414Z,100355.47
2022-08-23T04:43:58.940Z,100353.38
2022-08-23T04:50:46.293Z,100366.53
2022-08-23T04:57:37.157Z,100363.69
2022-08-23T05:04:25.844Z,100371.25
2022-08-23T05:11:13.643Z,100381.22
2022-08-23T05:18:00.212Z,100392.41
2022-08-23T05:24:49.447Z,100389.56
2022-08-23T05:31:35.054Z,100406.81
2022-08-23T05:38:22.216Z,100419.97
2022-08-23T05:45:12.576Z,100424.34
2022-08-23T05:51:59.608Z,100433.59
2022-08-23T05:58:50.721Z,100417.97
2022-08-23T06:05:43.438Z,100393.94
2022-08-23T06:12:30.197Z,100392.50
2022-08-23T06:19:16.989Z,100450.09
2022-08-23T06:26:18.866Z,100453.78
2022-08-23T06:33:05.087Z,100461.91
2022-08-23T06:39:50.691Z,100457.91
2022-08-23T06:46:58.537Z,100451.50
2022-08-23T06:53:45.013Z,100453.09
2022-08-23T07:00:59.563Z,100470.78
2022-08-23T07:07:55.669Z,100466.78
2022-08-23T07:14:42.543Z,100482.84
2022-08-23T07:21:28.108Z,100479.19
2022-08-23T07:28:15.970Z,100472.72
2022-08-23T07:35:02.156Z,100484.81
2022-08-23T07:41:50.219Z,100488.44
2022-08-23T07:48:53.896Z,100484.00
2022-08-23T07:55:45.254Z,100485.53
2022-08-23T08:02:59.725Z,100489.06
2022-08-23T08:09:57.762Z,100485.72
2022-08-23T08:16:47.160Z,100484.25
2022-08-23T08:23:38.238Z,100497.38
2022-08-23T08:30:48.848Z,100487.47
2022-08-23T08:37:36.438Z,100511.16
2022-08-23T08:44:41.967Z,100514.19
2022-08-23T08:51:50.373Z,100511.13
2022-08-23T08:58:44.220Z,100507.31
2022-08-23T09:05:35.681Z,100506.78
2022-08-23T09:12:38.647Z,100507.31
2022-08-23T09:19:26.660Z,100507.25
2022-08-23T09:26:25.007Z,100489.88
2022-08-23T09:33:26.228Z,100507.13
2022-08-23T09:40:28.428Z,100493.88
2022-08-23T09:47:18.569Z,100488.56
2022-08-23T09:54:22.331Z,100486.56
2022-08-23T10:01:17.426Z,100478.31
2022-08-23T10:08:10.800Z,100470.50
2022-08-23T10:15:02.639Z,100461.63
2022-08-23T10:21:57.746Z,100456.41
2022-08-23T10:29:09.996Z,100450.53
2022-08-23T10:36:12.587Z,100448.66
2022-08-23T10:43:20.778Z,100447.56
2022-08-23T10:50:12.465Z,100447.31
2022-08-23T10:57:01.904Z,100443.72
2022-08-23T11:03:53.579Z,100435.56
2022-08-23T11:10:56.086Z,100426.50
2022-08-23T11:18:04.973Z,100414.53
2022-08-23T11:25:41.925Z,100414.16
2022-08-23T11:32:40.914Z,100408.59
2022-08-23T11:39:30.376Z,100404.16
2022-08-23T11:46:37.336Z,100405.53
2022-08-23T11:54:11.287Z,100405.22
2022-08-23T12:01:09.159Z,100408.03
2022-08-23T12:08:20.524Z,100410.44
2022-08-23T12:15:12.031Z,100398.00
2022-08-23T12:22:00.511Z,100384.59
2022-08-23T12:28:50.703Z,100391.00
2022-08-23T12:35:46.672Z,100386.75
2022-08-23T12:42:39.316Z,100374.50
2022-08-23T12:49:33.781Z,100346.09
2022-08-23T12:56:31.943Z,100374.69
2022-08-23T13:03:25.152Z,100380.91
2022-08-23T13:10:13.037Z,100300.97
2022-08-23T13:16:59.563Z,100369.09
2022-08-23T13:23:48.317Z,100357.69
2022-08-23T13:30:37.121Z,100357.91
2022-08-23T13:37:29.052Z,100356.63
2022-08-23T13:44:19.235Z,100350.22
2022-08-23T13:51:32.050Z,100339.34
2022-08-23T13:58:29.653Z,100347.22
2022-08-23T14:05:19.694Z,100341.53
2022-08-23T14:12:10.112Z,100312.09
2022-08-23T14:26:07.285Z,100329.91
2022-08-23T14:32:53.141Z,100329.09
2022-08-23T14:39:39.016Z,100336.09
2022-08-23T14:46:27.695Z,100324.19
2022-08-23T14:53:14.759Z,100320.53
2022-08-23T15:00:00.493Z,100334.19
2022-08-23T15:07:15.989Z,100329.22
2022-08-23T15:13:56.367Z,100332.63
2022-08-23T15:20:43.075Z,100292.03
2022-08-23T15:27:31.137Z,100317.59
2022-08-23T15:34:16.652Z,100314.16
2022-08-23T15:41:04.741Z,100316.09
2022-08-23T15:47:55.980Z,100273.47
2022-08-23T15:54:41.485Z,100308.84
2022-08-23T16:01:30.273Z,100314.53
2022-08-23T16:08:24.810Z,100308.03
2022-08-23T16:15:12.384Z,100275.16
2022-08-23T16:21:58.897Z,100301.25
2022-08-23T16:28:49.143Z,100299.00
2022-08-23T16:35:34.712Z,100310.88
2022-08-23T16:42:20.269Z,100312.94
2022-08-23T16:49:08.728Z,100314.06
2022-08-23T16:55:54.512Z,100311.03
2022-08-23T17:02:41.524Z,100320.72
2022-08-23T17:09:31.904Z,100312.94
2022-08-23T17:16:18.868Z,100322.16
2022-08-23T17:23:05.889Z,100323.09
2022-08-23T17:29:54.695Z,100320.06
2022-08-23T17:36:47.848Z,100322.59
2022-08-23T17:43:34.129Z,100340.19
2022-08-23T17:50:23.279Z,100338.44
2022-08-23T17:57:09.441Z,100351.22
2022-08-23T18:03:55.617Z,100357.06
2022-08-23T18:10:43.808Z,100354.97
2022-08-23T18:17:29.429Z,100371.09
2022-08-23T18:24:15.921Z,100375.03
2022-08-23T18:31:05.990Z,100369.63
2022-08-23T18:37:51.508Z,100397.44
2022-08-23T18:44:36.999Z,100400.38
2022-08-23T18:51:25.485Z,100400.63
2022-08-23T18:58:11.281Z,100378.78
2022-08-23T19:04:56.827Z,100422.38
2022-08-23T19:11:45.499Z,100421.50
2022-08-23T19:18:31.127Z,100367.28
2022-08-23T19:25:17.713Z,100391.63
2022-08-23T19:32:06.808Z,100441.31
2022-08-23T19:38:52.639Z,100450.19
2022-08-23T19:45:38.411Z,100437.97
2022-08-23T19:52:26.553Z,100443.19
2022-08-23T19:59:15.989Z,100449.00
2022-08-23T20:06:06.556Z,100454.88
2022-08-23T20:12:54.585Z,100462.44
2022-08-23T20:19:41.947Z,100460.94
2022-08-23T20:26:29.344Z,100465.84
2022-08-23T20:33:17.474Z,100465.53
2022-08-23T20:40:03.344Z,100466.44
2022-08-23T20:46:53.776Z,100473.84
2022-08-23T20:53:42.874Z,100444.47
2022-08-23T21:00:28.488Z,100472.06
2022-08-23T21:07:15.059Z,100488.59
2022-08-23T21:14:03.525Z,100481.81
2022-08-23T21:20:49.157Z,100485.25
2022-08-23T21:27:34.736Z,100486.94
2022-08-23T21:34:23.329Z,100400.25
2022-08-23T21:41:11.904Z,100489.56
2022-08-23T21:47:58.681Z,100490.94
2022-08-23T21:54:49.383Z,100483.31
2022-08-23T22:01:36.828Z,100431.59
2022-08-23T22:08:22.377Z,100486.09
2022-08-23T22:15:12.076Z,100450.69
2022-08-23T22:21:57.565Z,100486.44
2022-08-23T22:28:44.872Z,100490.81
2022-08-23T22:35:36.317Z,100444.09
2022-08-23T22:42:22.096Z,100487.16
2022-08-23T22:49:07.885Z,100484.06
2022-08-23T22:55:56.707Z,100487.44
2022-08-23T23:02:42.510Z,100496.06
2022-08-23T23:09:28.808Z,100519.06
2022-08-23T23:16:20.624Z,100482.03
2022-08-23T23:23:06.380Z,100473.19
2022-08-23T23:29:51.972Z,100518.03
2022-08-23T23:36:41.145Z,100416.75
2022-08-23T23:43:26.793Z,100525.78
2022-08-23T23:50:14.256Z,100513.75
2022-08-23T23:57:03.503Z,100491.06
